You are not logged in, Click here to log in
ICAO: RCTP Country: 桃園市大園區航站南路9號
Latitude: 25.0797 Longitude: 121.234
Total Arrivals: 1466 Total Departures: 1509
Latest Arrival: BR852 (VHHH-RCTP)CHU. CHUHAO Latest Departure: CI8 (RCTP-KLAX)CHANG SHENG. HSIUNG
Scenery: http://www.taoyuan-airport.com/UserFiles/Image/e2map2.gif
METAR : RCTP 200300Z 01009KT 350V050 9999 FEW015 SCT090 BKN220 30/26 Q1006 NOSIG RMK A2971

臺灣桃園國際機場TPE